Terminal Aerodrome Forecast
Issued by NWS Cleveland, OH

Home | Current Version | Previous Version | Text Only | Print | Product List | Glossary Off
Versions: 1 2 3 4 5 6 7 8 9 10 11 12 13 14 15 16 17 18 19 20 21 22 23 24

000
FTUS41 KCLE 250500
TAFCAK
TAF
KCAK 250535Z 2506/2606 08005KT P6SM SCT250
     FM250800 12010KT P6SM SCT050 BKN120
     FM251000 14012G18KT 6SM -RA BR SCT025 OVC050 WS015/18045KT
      TEMPO 2510/2511 4SM -RA BR OVC025
     FM251100 15012G18KT 2SM -RA BR OVC012 WS015/20050KT
     FM251400 20016G28KT 5SM -RA BR OVC012
     FM251600 23015G25KT P6SM BKN025
     FM252000 24014G22KT P6SM SCT050
     FM260300 23005KT P6SM BKN250=

USA.gov is the U.S. government's official web portal to all federal, state and local government web resources and services.